createdAt,value
2018-05-04T00:00:16.620Z,10.23
2018-05-04T00:02:44.771Z,10.60
2018-05-04T00:05:12.898Z,9.00
2018-05-04T00:07:41.074Z,9.00
2018-05-04T00:10:09.936Z,9.33
2018-05-04T00:12:38.851Z,9.23
2018-05-04T00:15:06.990Z,10.00
2018-05-04T00:17:35.118Z,9.30
2018-05-04T00:20:03.364Z,9.40
2018-05-04T00:22:32.275Z,9.60
2018-05-04T00:25:00.392Z,9.43
2018-05-04T00:27:28.527Z,11.10
2018-05-04T00:29:56.654Z,9.27
2018-05-04T00:32:25.563Z,9.33
2018-05-04T00:34:53.689Z,9.80
2018-05-04T00:37:23.347Z,9.67
2018-05-04T00:39:51.644Z,9.43
2018-05-04T00:42:19.811Z,9.43
2018-05-04T00:44:47.966Z,9.70
2018-05-04T00:47:16.143Z,9.17
2018-05-04T00:49:44.300Z,8.60
2018-05-04T00:52:13.237Z,10.03
2018-05-04T00:54:41.352Z,9.20
2018-05-04T00:57:10.268Z,9.70
2018-05-04T00:59:38.416Z,8.60
2018-05-04T01:02:07.335Z,8.53
2018-05-04T01:04:35.492Z,8.97
2018-05-04T01:07:03.736Z,9.03
2018-05-04T01:09:31.924Z,8.37
2018-05-04T01:12:00.834Z,9.40
2018-05-04T01:14:29.139Z,8.33
2018-05-04T01:16:57.304Z,8.20
2018-05-04T01:19:25.492Z,8.90
2018-05-04T01:21:53.616Z,8.23
2018-05-04T01:24:22.510Z,9.27
2018-05-04T01:26:50.650Z,7.67
2018-05-04T01:29:18.793Z,8.90
2018-05-04T01:31:46.946Z,8.33
2018-05-04T01:34:15.173Z,10.07
2018-05-04T01:36:44.090Z,9.73
2018-05-04T01:39:12.321Z,9.27
2018-05-04T01:41:40.457Z,9.00
2018-05-04T01:44:08.619Z,8.37
2018-05-04T01:46:36.766Z,9.67
2018-05-04T01:49:05.772Z,9.70
2018-05-04T01:51:33.899Z,9.27
2018-05-04T01:54:02.043Z,9.10
2018-05-04T01:56:30.157Z,9.20
2018-05-04T01:58:58.354Z,9.27
2018-05-04T02:01:27.235Z,9.73
2018-05-04T02:03:55.385Z,9.27
2018-05-04T02:06:23.699Z,10.50
2018-05-04T02:08:51.840Z,8.88
2018-05-04T02:11:20.735Z,9.53
2018-05-04T02:13:49.734Z,9.02
2018-05-04T02:16:18.677Z,9.47
2018-05-04T02:18:46.896Z,9.80
2018-05-04T02:21:15.047Z,9.37
2018-05-04T02:23:43.186Z,9.25
2018-05-04T02:26:11.414Z,10.23
2018-05-04T02:28:39.575Z,9.65
2018-05-04T02:31:07.731Z,9.80
2018-05-04T02:33:35.935Z,9.87
2018-05-04T02:36:04.824Z,9.87
2018-05-04T02:38:33.804Z,10.45
2018-05-04T02:41:02.703Z,9.37
2018-05-04T02:43:31.639Z,9.90
2018-05-04T02:45:59.863Z,9.40
2018-05-04T02:48:28.777Z,9.95
2018-05-04T02:50:57.015Z,9.43
2018-05-04T02:53:25.172Z,10.05
2018-05-04T02:55:53.300Z,9.80
2018-05-04T02:58:21.436Z,9.85
2018-05-04T03:00:50.447Z,9.95
2018-05-04T03:03:18.607Z,10.50
2018-05-04T03:05:47.518Z,10.27
2018-05-04T03:08:15.673Z,10.65
2018-05-04T03:10:44.651Z,9.65
2018-05-04T03:13:13.555Z,9.85
2018-05-04T03:15:41.686Z,9.40
2018-05-04T03:18:09.839Z,10.35
2018-05-04T03:20:37.959Z,10.25
2018-05-04T03:23:06.898Z,10.43
2018-05-04T03:25:35.038Z,10.75
2018-05-04T03:28:03.180Z,9.55
2018-05-04T03:30:31.328Z,10.37
2018-05-04T03:32:59.456Z,9.63
2018-05-04T03:35:28.486Z,10.20
2018-05-04T03:37:56.618Z,11.12
2018-05-04T03:40:24.767Z,10.13
2018-05-04T03:42:53.865Z,9.73
2018-05-04T03:45:21.906Z,8.70
2018-05-04T03:47:50.078Z,11.05
2018-05-04T03:50:18.215Z,9.60
2018-05-04T03:52:46.342Z,10.10
2018-05-04T03:55:15.274Z,10.98
2018-05-04T03:57:55.408Z,10.68
2018-05-04T04:00:36.403Z,11.33
2018-05-04T04:03:16.512Z,10.13
2018-05-04T04:05:45.420Z,10.47
2018-05-04T04:08:13.575Z,11.30
2018-05-04T04:10:42.487Z,10.63
2018-05-04T04:13:10.623Z,10.20
2018-05-04T04:15:38.784Z,11.43
2018-05-04T04:18:07.012Z,10.15
2018-05-04T04:20:35.162Z,10.45
2018-05-04T04:23:03.322Z,9.80
2018-05-04T04:25:32.351Z,11.00
2018-05-04T04:28:00.498Z,10.43
2018-05-04T04:30:29.462Z,10.77
2018-05-04T04:32:57.600Z,10.27
2018-05-04T04:35:25.827Z,10.88
2018-05-04T04:37:54.723Z,11.43
2018-05-04T04:40:23.646Z,10.80
2018-05-04T04:42:51.835Z,10.70
2018-05-04T04:45:20.000Z,10.83
2018-05-04T04:47:48.135Z,10.67
2018-05-04T04:50:17.056Z,10.60
2018-05-04T04:52:45.189Z,10.90
2018-05-04T04:55:14.193Z,11.53
2018-05-04T04:57:43.184Z,10.50
2018-05-04T05:00:12.084Z,10.13
2018-05-04T05:02:40.263Z,10.52
2018-05-04T05:05:08.413Z,11.30
2018-05-04T05:07:37.310Z,10.20
2018-05-04T05:10:05.470Z,11.57
2018-05-04T05:12:34.462Z,12.20
2018-05-04T05:15:03.463Z,10.60
2018-05-04T05:17:31.656Z,10.87
2018-05-04T05:19:59.790Z,10.60
2018-05-04T05:22:28.704Z,11.73
2018-05-04T05:24:56.996Z,11.38
2018-05-04T05:27:25.132Z,10.63
2018-05-04T05:29:54.044Z,11.53
2018-05-04T05:32:22.250Z,11.27
2018-05-04T05:34:50.380Z,11.80
2018-05-04T05:37:19.361Z,11.80
2018-05-04T05:39:48.971Z,12.00
2018-05-04T05:42:17.942Z,11.40
2018-05-04T05:44:46.124Z,10.77
2018-05-04T05:47:15.030Z,12.10
2018-05-04T05:49:44.005Z,11.20
2018-05-04T05:52:12.161Z,10.60
2018-05-04T05:54:40.433Z,12.50
2018-05-04T05:57:09.291Z,12.07
2018-05-04T05:59:37.448Z,10.93
2018-05-04T06:02:05.605Z,11.23
2018-05-04T06:04:33.763Z,11.87
2018-05-04T06:07:02.764Z,13.40
2018-05-04T06:09:31.915Z,12.27
2018-05-04T06:12:00.160Z,12.80
2018-05-04T06:14:28.304Z,12.40
2018-05-04T06:16:56.448Z,13.20
2018-05-04T06:19:24.611Z,12.37
2018-05-04T06:21:52.746Z,12.50
2018-05-04T06:24:20.890Z,12.37
2018-05-04T06:26:49.803Z,12.30
2018-05-04T06:29:17.944Z,12.10
2018-05-04T06:31:46.949Z,11.90
2018-05-04T06:34:15.095Z,12.57
2018-05-04T06:36:44.013Z,12.40
2018-05-04T06:39:12.208Z,12.20
2018-05-04T06:41:40.331Z,12.43
2018-05-04T06:44:08.495Z,13.00
2018-05-04T06:46:36.690Z,12.00
2018-05-04T06:49:04.873Z,12.30
2018-05-04T06:51:33.037Z,11.70
2018-05-04T06:54:01.942Z,11.17
2018-05-04T06:56:30.081Z,11.57
2018-05-04T06:58:58.307Z,11.60
2018-05-04T07:01:26.440Z,12.23
2018-05-04T07:03:55.340Z,12.20
2018-05-04T07:06:26.258Z,12.43
2018-05-04T07:08:54.477Z,12.33
2018-05-04T07:11:22.617Z,12.13
2018-05-04T07:13:50.765Z,10.83
2018-05-04T07:16:18.876Z,11.00
2018-05-04T07:18:47.002Z,11.60
2018-05-04T07:21:15.152Z,11.20
2018-05-04T07:23:43.285Z,11.20
2018-05-04T07:26:11.441Z,10.70
2018-05-04T07:28:39.599Z,11.00
2018-05-04T07:31:07.709Z,10.73
2018-05-04T07:33:35.852Z,11.13
2018-05-04T07:36:04.930Z,10.50
2018-05-04T07:38:33.028Z,10.73
2018-05-04T07:41:01.203Z,11.10
2018-05-04T07:43:30.096Z,11.30
2018-05-04T07:45:58.237Z,11.87
2018-05-04T07:48:26.418Z,12.63
2018-05-04T07:50:55.324Z,11.33
2018-05-04T07:53:23.524Z,11.30
2018-05-04T07:55:51.651Z,11.73
2018-05-04T07:58:20.567Z,12.13
2018-05-04T08:00:48.688Z,12.40
2018-05-04T08:03:16.844Z,12.13
2018-05-04T08:05:44.994Z,11.90
2018-05-04T08:08:13.136Z,12.00
2018-05-04T08:10:42.238Z,12.53
2018-05-04T08:13:11.134Z,11.73
2018-05-04T08:15:39.283Z,11.17
2018-05-04T08:18:08.191Z,12.67
2018-05-04T08:20:36.323Z,12.43
2018-05-04T08:23:04.471Z,12.20
2018-05-04T08:25:32.642Z,13.27
2018-05-04T08:28:00.787Z,12.93
2018-05-04T08:30:28.937Z,13.07
2018-05-04T08:32:57.936Z,12.63
2018-05-04T08:35:26.941Z,13.80
2018-05-04T08:37:55.019Z,13.00
2018-05-04T08:40:23.169Z,12.40
2018-05-04T08:42:52.188Z,13.07
2018-05-04T08:45:20.251Z,13.23
2018-05-04T08:47:48.402Z,13.17
2018-05-04T08:50:17.298Z,12.20
2018-05-04T08:52:45.476Z,13.00
2018-05-04T08:55:13.629Z,13.60
2018-05-04T08:57:42.547Z,13.87
2018-05-04T09:00:10.673Z,12.63
2018-05-04T09:02:38.853Z,13.80
2018-05-04T09:05:07.149Z,15.77
2018-05-04T09:07:35.985Z,13.53
2018-05-04T09:10:04.138Z,15.17
2018-05-04T09:12:32.246Z,15.17
2018-05-04T09:15:00.426Z,14.67
2018-05-04T09:17:30.084Z,15.63
2018-05-04T09:19:58.236Z,14.50
2018-05-04T09:22:27.156Z,14.50
2018-05-04T09:24:55.292Z,14.43
2018-05-04T09:27:24.280Z,15.87
2018-05-04T09:29:53.183Z,14.97
2018-05-04T09:32:21.343Z,16.30
2018-05-04T09:34:50.238Z,16.70
2018-05-04T09:37:18.431Z,16.10
2018-05-04T09:39:46.530Z,17.80
2018-05-04T09:42:14.760Z,16.27
2018-05-04T09:44:44.605Z,18.10
2018-05-04T09:47:12.735Z,19.80
2018-05-04T09:49:41.647Z,16.60
2018-05-04T09:52:09.781Z,19.37
2018-05-04T09:54:38.123Z,16.93
2018-05-04T09:57:06.245Z,19.50
2018-05-04T09:59:35.171Z,17.77
2018-05-04T10:02:03.297Z,18.10
2018-05-04T10:04:32.309Z,18.07
2018-05-04T10:07:00.443Z,17.87
2018-05-04T10:09:28.667Z,19.47
2018-05-04T10:11:56.823Z,17.60
2018-05-04T10:14:24.987Z,16.73
2018-05-04T10:16:53.174Z,17.87
2018-05-04T10:19:21.331Z,19.30
2018-05-04T10:21:50.268Z,18.93
2018-05-04T10:24:18.414Z,19.50
2018-05-04T10:26:46.564Z,19.80
2018-05-04T10:29:15.466Z,21.30
2018-05-04T10:31:43.624Z,20.57
2018-05-04T10:34:12.557Z,19.40
2018-05-04T10:36:40.688Z,19.60
2018-05-04T10:39:09.711Z,19.70
2018-05-04T10:41:37.852Z,21.23
2018-05-04T10:44:06.036Z,20.50
2018-05-04T10:46:34.934Z,21.40
2018-05-04T10:49:03.104Z,21.50
2018-05-04T10:51:31.223Z,20.63
2018-05-04T10:53:59.397Z,20.70
2018-05-04T10:56:27.601Z,21.23
2018-05-04T11:00:09.067Z,20.57
2018-05-04T11:02:38.012Z,20.20
2018-05-04T11:05:06.979Z,19.87
2018-05-04T11:07:35.959Z,19.47
2018-05-04T11:10:04.999Z,21.50
2018-05-04T11:12:33.869Z,19.03
2018-05-04T11:15:02.795Z,19.50
2018-05-04T11:17:31.730Z,17.90
2018-05-04T11:20:00.661Z,19.53
2018-05-04T11:22:30.364Z,19.77
2018-05-04T11:24:59.278Z,19.80
2018-05-04T11:27:28.207Z,19.80
2018-05-04T11:29:57.134Z,19.50
2018-05-04T11:32:26.920Z,19.90
2018-05-04T11:34:55.837Z,20.00
2018-05-04T11:37:25.607Z,21.80
2018-05-04T11:39:54.596Z,18.53
2018-05-04T11:42:23.494Z,21.13
2018-05-04T11:44:52.404Z,21.30
2018-05-04T11:47:21.290Z,20.43
2018-05-04T11:49:50.178Z,20.27
2018-05-04T11:52:19.158Z,19.40
2018-05-04T11:54:48.058Z,19.63
2018-05-04T11:57:16.963Z,19.23
2018-05-04T11:59:45.912Z,20.53
2018-05-04T12:02:14.923Z,19.00
2018-05-04T12:04:43.843Z,18.20
2018-05-04T12:07:13.942Z,18.70
2018-05-04T12:09:43.772Z,18.73
2018-05-04T12:12:13.437Z,16.80
2018-05-04T12:14:42.439Z,17.70
2018-05-04T12:17:11.318Z,17.10
2018-05-04T12:19:40.248Z,16.37
2018-05-04T12:22:09.171Z,16.17
2018-05-04T12:24:38.108Z,17.20
2018-05-04T12:27:07.009Z,18.70
2018-05-04T12:29:35.947Z,17.40
2018-05-04T12:32:04.868Z,17.87
2018-05-04T12:34:33.949Z,18.40
2018-05-04T12:37:02.835Z,18.90
2018-05-04T12:39:31.765Z,19.27
2018-05-04T12:42:00.694Z,18.07
2018-05-04T12:44:29.606Z,17.97
2018-05-04T12:46:58.558Z,18.90
2018-05-04T12:49:28.207Z,20.60
2018-05-04T12:51:57.210Z,19.93
2018-05-04T12:54:26.097Z,20.23
2018-05-04T12:56:54.990Z,19.60
2018-05-04T12:59:23.899Z,19.53
2018-05-04T13:01:52.824Z,19.60
2018-05-04T13:04:22.628Z,20.30
2018-05-04T13:06:51.480Z,18.47
2018-05-04T13:09:20.380Z,20.13
2018-05-04T13:11:49.352Z,20.50
2018-05-04T13:14:18.267Z,20.47
2018-05-04T13:16:47.156Z,18.50
2018-05-04T13:19:16.829Z,19.83
2018-05-04T13:21:45.747Z,18.20
2018-05-04T13:24:14.635Z,18.90
2018-05-04T13:26:43.523Z,18.33
2018-05-04T13:29:12.475Z,18.17
2018-05-04T13:31:41.396Z,19.43
2018-05-04T13:34:10.291Z,19.10
2018-05-04T13:36:39.209Z,18.80
2018-05-04T13:39:08.894Z,17.33
2018-05-04T13:41:37.816Z,19.63
2018-05-04T13:44:07.467Z,18.40
2018-05-04T13:46:36.340Z,19.13
2018-05-04T13:49:05.263Z,20.07
2018-05-04T13:51:34.198Z,18.70
2018-05-04T13:54:03.071Z,19.10
2018-05-04T13:56:32.774Z,19.23
2018-05-04T13:59:02.464Z,18.03
2018-05-04T14:01:32.061Z,18.27
2018-05-04T14:04:01.955Z,18.87
2018-05-04T14:06:30.888Z,18.00
2018-05-04T14:08:59.804Z,19.63
2018-05-04T14:11:28.731Z,18.63
2018-05-04T14:13:57.650Z,18.87
2018-05-04T14:16:27.354Z,20.00
2018-05-04T14:18:56.228Z,18.20
2018-05-04T14:21:25.167Z,17.87
2018-05-04T14:23:54.072Z,18.77
2018-05-04T14:26:23.247Z,18.63
2018-05-04T14:28:52.920Z,17.80
2018-05-04T14:31:21.813Z,18.33
2018-05-04T14:33:50.750Z,18.83
2018-05-04T14:36:19.643Z,19.13
2018-05-04T14:38:48.606Z,18.73
2018-05-04T14:41:18.264Z,17.17
2018-05-04T14:43:47.187Z,18.90
2018-05-04T14:46:17.614Z,19.17
2018-05-04T14:48:46.490Z,18.53
2018-05-04T14:51:15.391Z,19.27
2018-05-04T14:53:45.143Z,17.77
2018-05-04T14:56:14.038Z,19.17
2018-05-04T14:58:42.966Z,17.13
2018-05-04T15:01:11.941Z,17.33
2018-05-04T15:03:40.862Z,18.00
2018-05-04T15:06:09.759Z,15.73
2018-05-04T15:08:39.622Z,17.50
2018-05-04T15:11:08.595Z,16.47
2018-05-04T15:13:37.565Z,16.50
2018-05-04T15:16:07.334Z,16.23
2018-05-04T15:18:36.967Z,16.43
2018-05-04T15:21:06.649Z,16.67
2018-05-04T15:23:35.528Z,16.80
2018-05-04T15:26:04.422Z,16.50
2018-05-04T15:28:33.332Z,17.20
2018-05-04T15:31:02.226Z,15.07
2018-05-04T15:33:31.933Z,16.40
2018-05-04T15:36:00.847Z,15.97
2018-05-04T15:38:29.766Z,16.33
2018-05-04T15:40:58.662Z,15.27
2018-05-04T15:43:27.546Z,16.03
2018-05-04T15:45:56.497Z,15.27
2018-05-04T15:48:31.679Z,15.90
2018-05-04T15:51:06.191Z,16.13
2018-05-04T15:53:35.063Z,15.57
2018-05-04T15:56:04.000Z,17.40
2018-05-04T15:58:32.893Z,15.93
2018-05-04T16:01:01.842Z,15.80
2018-05-04T16:03:30.779Z,15.43
2018-05-04T16:06:00.441Z,17.00
2018-05-04T16:08:29.378Z,15.80
2018-05-04T16:10:58.367Z,15.40
2018-05-04T16:13:27.277Z,15.50
2018-05-04T16:15:56.973Z,17.40
2018-05-04T16:18:25.902Z,15.80
2018-05-04T16:20:54.808Z,15.37
2018-05-04T16:23:23.719Z,15.13
2018-05-04T16:25:52.635Z,15.53
2018-05-04T16:28:21.542Z,14.63
2018-05-04T16:30:51.221Z,15.03
2018-05-04T16:33:20.125Z,16.77
2018-05-04T16:35:49.797Z,15.50
2018-05-04T16:38:18.723Z,15.83
2018-05-04T16:40:48.414Z,16.40
2018-05-04T16:43:17.305Z,16.17
2018-05-04T16:45:46.991Z,16.20
2018-05-04T16:48:23.136Z,15.07
2018-05-04T16:50:52.044Z,14.90
2018-05-04T16:53:21.711Z,14.80
2018-05-04T16:55:50.604Z,14.90
2018-05-04T16:58:19.569Z,15.07
2018-05-04T17:00:49.244Z,16.30
2018-05-04T17:03:18.204Z,16.50
2018-05-04T17:05:47.097Z,14.17
2018-05-04T17:08:15.991Z,14.77
2018-05-04T17:10:44.891Z,15.37
2018-05-04T17:13:13.963Z,14.20
2018-05-04T17:15:42.893Z,14.87
2018-05-04T17:18:11.785Z,14.10
2018-05-04T17:20:40.702Z,13.60
2018-05-04T17:23:10.355Z,13.23
2018-05-04T17:25:39.245Z,13.87
2018-05-04T17:28:08.186Z,14.67
2018-05-04T17:30:37.089Z,14.10
2018-05-04T17:33:06.134Z,14.90
2018-05-04T17:35:35.124Z,14.57
2018-05-04T17:38:04.153Z,15.27
2018-05-04T17:40:34.083Z,14.80
2018-05-04T17:43:02.842Z,17.30
2018-05-04T17:45:32.544Z,15.17
2018-05-04T17:48:03.119Z,15.70
2018-05-04T17:50:32.064Z,16.27
2018-05-04T17:53:00.993Z,16.70
2018-05-04T17:55:29.923Z,17.80
2018-05-04T17:57:58.893Z,17.23
2018-05-04T18:00:27.792Z,32.47
2018-05-04T18:02:56.783Z,53.47
2018-05-04T18:05:25.684Z,16.60
2018-05-04T18:07:54.656Z,14.80
2018-05-04T18:10:23.620Z,15.57
2018-05-04T18:12:52.467Z,17.17
2018-05-04T18:15:22.252Z,16.30
2018-05-04T18:17:51.217Z,16.13
2018-05-04T18:20:20.119Z,18.00
2018-05-04T18:22:49.028Z,18.20
2018-05-04T18:25:17.937Z,20.93
2018-05-04T18:27:47.651Z,17.40
2018-05-04T18:30:16.553Z,18.57
2018-05-04T18:32:45.498Z,19.27
2018-05-04T18:35:14.402Z,21.10
2018-05-04T18:37:43.303Z,20.27
2018-05-04T18:40:12.251Z,18.87
2018-05-04T18:42:41.175Z,19.43
2018-05-04T18:45:10.132Z,19.97
2018-05-04T18:47:39.049Z,17.70
2018-05-04T18:50:08.035Z,20.47
2018-05-04T18:52:36.953Z,17.57
2018-05-04T18:55:06.634Z,17.70
2018-05-04T18:57:35.664Z,18.27
2018-05-04T19:00:04.683Z,19.00
2018-05-04T19:02:39.458Z,18.23
2018-05-04T19:05:08.366Z,19.33
2018-05-04T19:07:37.305Z,19.07
2018-05-04T19:10:06.214Z,20.70
2018-05-04T19:12:35.142Z,20.90
2018-05-04T19:15:04.121Z,24.40
2018-05-04T19:17:33.115Z,24.53
2018-05-04T19:20:02.041Z,22.00
2018-05-04T19:22:30.985Z,20.53
2018-05-04T19:24:59.877Z,20.30
2018-05-04T19:27:28.849Z,19.87
2018-05-04T19:29:57.754Z,20.57
2018-05-04T19:32:26.692Z,20.73
2018-05-04T19:34:55.588Z,19.50
2018-05-04T19:37:24.517Z,18.50
2018-05-04T19:39:53.406Z,19.93
2018-05-04T19:42:22.281Z,20.33
2018-05-04T19:44:51.263Z,19.43
2018-05-04T19:47:20.207Z,20.00
2018-05-04T19:49:49.934Z,20.70
2018-05-04T19:52:18.849Z,20.27
2018-05-04T19:54:47.764Z,20.13
2018-05-04T19:57:16.687Z,19.10
2018-05-04T19:59:46.387Z,21.10
2018-05-04T20:02:16.063Z,20.50
2018-05-04T20:04:44.952Z,20.40
2018-05-04T20:07:13.903Z,20.97
2018-05-04T20:09:42.849Z,21.40
2018-05-04T20:12:11.744Z,20.10
2018-05-04T20:14:40.713Z,20.13
2018-05-04T20:17:09.628Z,20.00
2018-05-04T20:19:38.541Z,22.33
2018-05-04T20:22:08.282Z,20.13
2018-05-04T20:24:37.216Z,21.77
2018-05-04T20:27:07.650Z,21.53
2018-05-04T20:29:36.643Z,21.43
2018-05-04T20:32:06.495Z,20.93
2018-05-04T20:34:35.479Z,19.70
2018-05-04T20:37:04.430Z,20.50
2018-05-04T20:39:33.357Z,20.60
2018-05-04T20:42:02.316Z,22.70
2018-05-04T20:44:32.007Z,22.00
2018-05-04T20:47:00.976Z,21.07
2018-05-04T20:49:29.878Z,20.53
2018-05-04T20:51:58.953Z,20.70
2018-05-04T20:54:27.828Z,22.73
2018-05-04T20:56:56.763Z,20.43
2018-05-04T20:59:27.192Z,21.70
2018-05-04T21:01:57.718Z,21.10
2018-05-04T21:04:26.678Z,21.17
2018-05-04T21:06:55.576Z,21.80
2018-05-04T21:09:24.513Z,22.10
2018-05-04T21:11:54.189Z,22.17
2018-05-04T21:14:23.097Z,22.27
2018-05-04T21:16:52.086Z,22.60
2018-05-04T21:19:20.962Z,22.37
2018-05-04T21:21:49.929Z,20.93
2018-05-04T21:24:18.848Z,21.90
2018-05-04T21:26:47.748Z,21.23
2018-05-04T21:29:17.412Z,20.93
2018-05-04T21:31:46.324Z,20.80
2018-05-04T21:34:15.258Z,23.63
2018-05-04T21:36:44.167Z,22.53
2018-05-04T21:39:13.058Z,20.87
2018-05-04T21:41:41.945Z,21.30
2018-05-04T21:44:10.852Z,22.57
2018-05-04T21:46:39.802Z,23.60
2018-05-04T21:49:08.760Z,23.60
2018-05-04T21:51:37.658Z,23.60
2018-05-04T21:54:07.348Z,21.93
2018-05-04T21:56:36.230Z,22.97
2018-05-04T21:59:05.241Z,22.33
2018-05-04T22:01:34.825Z,24.67
2018-05-04T22:04:03.722Z,23.27
2018-05-04T22:06:32.621Z,22.33
2018-05-04T22:09:02.283Z,22.77
2018-05-04T22:11:31.284Z,24.33
2018-05-04T22:14:00.194Z,22.40
2018-05-04T22:16:29.087Z,22.10
2018-05-04T22:18:58.064Z,22.40
2018-05-04T22:21:26.957Z,24.20
2018-05-04T22:23:55.843Z,23.47
2018-05-04T22:26:25.128Z,24.63
2018-05-04T22:28:53.938Z,25.33
2018-05-04T22:31:24.367Z,23.93
2018-05-04T22:33:53.260Z,25.20
2018-05-04T22:36:22.184Z,23.83
2018-05-04T22:38:51.094Z,23.73
2018-05-04T22:41:20.009Z,25.00
2018-05-04T22:43:48.950Z,24.47
2018-05-04T22:46:18.595Z,26.07
2018-05-04T22:48:47.500Z,24.57
2018-05-04T22:51:16.419Z,26.90
2018-05-04T22:53:46.082Z,25.30
2018-05-04T22:56:15.088Z,26.03
2018-05-04T22:58:43.962Z,25.40
2018-05-04T23:01:12.976Z,25.37
2018-05-04T23:03:41.949Z,25.30
2018-05-04T23:06:10.849Z,25.13
2018-05-04T23:08:39.821Z,23.70
2018-05-04T23:11:08.708Z,22.47
2018-05-04T23:13:37.634Z,22.33
2018-05-04T23:16:06.533Z,21.03
2018-05-04T23:18:36.210Z,20.97
2018-05-04T23:21:05.207Z,18.73
2018-05-04T23:23:33.990Z,18.00
2018-05-04T23:26:02.907Z,16.73
2018-05-04T23:28:31.803Z,15.77
2018-05-04T23:31:00.675Z,15.17
2018-05-04T23:33:30.357Z,14.80
2018-05-04T23:35:59.275Z,15.33
2018-05-04T23:38:28.175Z,13.20
2018-05-04T23:40:57.849Z,12.93
2018-05-04T23:43:26.831Z,12.73
2018-05-04T23:45:55.740Z,11.27
2018-05-04T23:48:24.704Z,11.40
2018-05-04T23:50:53.613Z,10.80
2018-05-04T23:53:22.592Z,9.77
2018-05-04T23:55:51.492Z,9.73
2018-05-04T23:58:20.391Z,10.73
